createdAt,value
2017-11-05T00:00:21.163Z,0
2017-11-05T00:01:18.959Z,0
2017-11-05T00:02:18.634Z,0
2017-11-05T00:03:18.977Z,0
2017-11-05T00:04:18.931Z,0
2017-11-05T00:05:20.162Z,0
2017-11-05T00:06:18.610Z,0
2017-11-05T00:07:18.938Z,0
2017-11-05T00:08:18.290Z,0
2017-11-05T00:09:18.932Z,0
2017-11-05T00:10:20.259Z,0
2017-11-05T00:11:19.261Z,0
2017-11-05T00:12:18.938Z,0
2017-11-05T00:13:19.246Z,0
2017-11-05T00:14:18.270Z,0
2017-11-05T00:15:23.113Z,0
2017-11-05T00:16:18.925Z,0
2017-11-05T00:17:18.582Z,0
2017-11-05T00:18:18.594Z,0
2017-11-05T00:19:19.243Z,0
2017-11-05T00:20:20.359Z,0
2017-11-05T00:21:18.972Z,0
2017-11-05T00:22:18.890Z,0
2017-11-05T00:23:18.554Z,0
2017-11-05T00:24:19.213Z,0
2017-11-05T00:25:19.244Z,0
2017-11-05T00:26:18.885Z,0
2017-11-05T00:27:19.244Z,0
2017-11-05T00:28:18.883Z,0
2017-11-05T00:29:18.578Z,0
2017-11-05T00:30:20.514Z,0
2017-11-05T00:31:19.183Z,0
2017-11-05T00:32:18.529Z,0
2017-11-05T00:33:18.553Z,0
2017-11-05T00:34:19.179Z,0
2017-11-05T00:35:19.714Z,0
2017-11-05T00:36:19.331Z,0
2017-11-05T00:37:18.203Z,0
2017-11-05T00:38:18.856Z,0
2017-11-05T00:39:18.539Z,0
2017-11-05T00:40:20.305Z,0
2017-11-05T00:41:18.842Z,0
2017-11-05T00:42:18.823Z,0
2017-11-05T00:43:18.840Z,0
2017-11-05T00:44:18.498Z,0
2017-11-05T00:45:19.618Z,0
2017-11-05T00:46:19.404Z,0
2017-11-05T00:47:18.815Z,0
2017-11-05T00:48:18.823Z,0
2017-11-05T00:49:18.491Z,0
2017-11-05T00:50:20.673Z,0
2017-11-05T00:51:18.813Z,0
2017-11-05T00:52:19.127Z,0
2017-11-05T00:53:18.811Z,0
2017-11-05T00:54:18.804Z,0
2017-11-05T00:55:19.195Z,0
2017-11-05T00:56:18.159Z,0
2017-11-05T00:57:18.791Z,0
2017-11-05T00:58:19.102Z,0
2017-11-05T00:59:18.778Z,0
2017-11-05T01:00:20.343Z,0
2017-11-05T01:01:19.146Z,0
2017-11-05T01:02:18.455Z,0
2017-11-05T01:03:18.461Z,0
2017-11-05T01:04:18.768Z,0
2017-11-05T01:05:20.320Z,0
2017-11-05T01:06:18.766Z,0
2017-11-05T01:07:18.763Z,0
2017-11-05T01:08:18.761Z,0
2017-11-05T01:09:18.788Z,0
2017-11-05T01:10:19.323Z,0
2017-11-05T01:11:19.237Z,0
2017-11-05T01:12:19.064Z,0
2017-11-05T01:13:19.065Z,0
2017-11-05T01:14:18.421Z,0
2017-11-05T01:15:20.347Z,0
2017-11-05T01:16:19.736Z,0
2017-11-05T01:17:18.729Z,0
2017-11-05T01:18:18.426Z,0
2017-11-05T01:19:19.054Z,0
2017-11-05T01:20:19.760Z,0
2017-11-05T01:21:19.086Z,0
2017-11-05T01:22:18.390Z,0
2017-11-05T01:23:18.400Z,0
2017-11-05T01:24:18.743Z,0
2017-11-05T01:25:20.217Z,0
2017-11-05T01:26:18.706Z,0
2017-11-05T01:27:19.032Z,0
2017-11-05T01:28:18.373Z,0
2017-11-05T01:29:18.696Z,0
2017-11-05T01:30:19.939Z,0
2017-11-05T01:31:19.016Z,0
2017-11-05T01:32:18.745Z,0
2017-11-05T01:33:18.361Z,0
2017-11-05T01:34:18.365Z,0
2017-11-05T01:35:19.700Z,0
2017-11-05T01:36:18.365Z,0
2017-11-05T01:37:18.689Z,0
2017-11-05T01:38:18.364Z,0
2017-11-05T01:39:18.686Z,0
2017-11-05T01:40:19.573Z,0
2017-11-05T01:41:18.992Z,0
2017-11-05T01:42:20.499Z,0
2017-11-05T01:43:18.968Z,0
2017-11-05T01:44:18.652Z,0
2017-11-05T01:45:20.361Z,0
2017-11-05T01:46:18.326Z,0
2017-11-05T01:47:18.498Z,0
2017-11-05T01:48:18.962Z,0
2017-11-05T01:49:18.974Z,0
2017-11-05T01:50:20.336Z,0
2017-11-05T01:51:18.946Z,0
2017-11-05T01:52:18.955Z,0
2017-11-05T01:53:18.654Z,0
2017-11-05T01:54:18.691Z,0
2017-11-05T01:55:20.557Z,0
2017-11-05T01:56:18.615Z,0
2017-11-05T01:57:18.936Z,0
2017-11-05T01:58:18.625Z,0
2017-11-05T01:59:18.606Z,0
2017-11-05T02:00:20.261Z,0
2017-11-05T02:01:18.924Z,0
2017-11-05T02:02:18.598Z,0
2017-11-05T02:03:18.911Z,0
2017-11-05T02:04:18.906Z,0
2017-11-05T02:05:19.406Z,0
2017-11-05T02:06:18.280Z,0
2017-11-05T02:07:18.918Z,0
2017-11-05T02:08:18.919Z,0
2017-11-05T02:09:18.267Z,0
2017-11-05T02:10:20.144Z,0
2017-11-05T02:11:18.258Z,0
2017-11-05T02:12:18.243Z,0
2017-11-05T02:13:18.882Z,0
2017-11-05T02:14:18.899Z,0
2017-11-05T02:15:19.832Z,0
2017-11-05T02:16:18.238Z,0
2017-11-05T02:17:23.970Z,0
2017-11-05T02:18:17.914Z,0
2017-11-05T02:19:18.859Z,0
2017-11-05T02:20:20.447Z,0
2017-11-05T02:21:18.867Z,0
2017-11-05T02:22:18.863Z,0
2017-11-05T02:23:18.527Z,0
2017-11-05T02:24:18.857Z,0
2017-11-05T02:25:20.698Z,0
2017-11-05T02:26:18.544Z,0
2017-11-05T02:27:18.220Z,0
2017-11-05T02:28:18.210Z,0
2017-11-05T02:29:18.209Z,0
2017-11-05T02:30:19.841Z,0
2017-11-05T02:31:18.242Z,0
2017-11-05T02:32:18.209Z,0
2017-11-05T02:33:18.505Z,0
2017-11-05T02:34:18.524Z,0
2017-11-05T02:35:20.468Z,0
2017-11-05T02:36:18.512Z,0
2017-11-05T02:37:18.495Z,0
2017-11-05T02:38:18.503Z,0
2017-11-05T02:39:18.497Z,0
2017-11-05T02:40:19.794Z,0
2017-11-05T02:41:18.509Z,0
2017-11-05T02:42:18.159Z,0
2017-11-05T02:43:18.494Z,0
2017-11-05T02:44:18.797Z,0
2017-11-05T02:45:20.566Z,0
2017-11-05T02:46:18.800Z,0
2017-11-05T02:47:19.023Z,0
2017-11-05T02:48:18.482Z,0
2017-11-05T02:49:18.159Z,0
2017-11-05T02:50:19.845Z,0
2017-11-05T02:51:18.481Z,0
2017-11-05T02:52:17.819Z,0
2017-11-05T02:53:18.793Z,0
2017-11-05T02:54:18.448Z,0
2017-11-05T02:55:20.206Z,0
2017-11-05T02:56:18.782Z,0
2017-11-05T02:57:18.769Z,0
2017-11-05T02:58:18.130Z,0
2017-11-05T02:59:18.756Z,0
2017-11-05T03:00:18.884Z,0
2017-11-05T03:01:18.116Z,0
2017-11-05T03:02:18.097Z,0
2017-11-05T03:03:18.736Z,0
2017-11-05T03:04:18.429Z,0
2017-11-05T03:05:19.946Z,0
2017-11-05T03:06:18.416Z,0
2017-11-05T03:07:18.822Z,0
2017-11-05T03:08:18.729Z,0
2017-11-05T03:09:18.411Z,0
2017-11-05T03:10:20.001Z,0
2017-11-05T03:11:18.078Z,0
2017-11-05T03:12:18.071Z,0
2017-11-05T03:13:18.730Z,0
2017-11-05T03:14:18.077Z,0
2017-11-05T03:15:18.921Z,0
2017-11-05T03:16:18.722Z,0
2017-11-05T03:17:18.213Z,0
2017-11-05T03:18:18.695Z,0
2017-11-05T03:19:18.696Z,0
2017-11-05T03:20:19.494Z,0
2017-11-05T03:21:18.383Z,0
2017-11-05T03:22:18.382Z,0
2017-11-05T03:23:18.709Z,0
2017-11-05T03:24:18.684Z,0
2017-11-05T03:25:19.372Z,0
2017-11-05T03:26:18.374Z,0
2017-11-05T03:27:18.362Z,0
2017-11-05T03:28:17.703Z,0
2017-11-05T03:29:18.676Z,0
2017-11-05T03:30:20.349Z,0
2017-11-05T03:31:18.693Z,0
2017-11-05T03:32:18.298Z,0
2017-11-05T03:33:18.357Z,0
2017-11-05T03:34:18.347Z,0
2017-11-05T03:35:19.884Z,0
2017-11-05T03:36:18.030Z,0
2017-11-05T03:37:18.008Z,0
2017-11-05T03:38:18.370Z,0
2017-11-05T03:39:18.039Z,0
2017-11-05T03:40:20.703Z,0
2017-11-05T03:41:18.333Z,0
2017-11-05T03:42:18.314Z,0
2017-11-05T03:43:18.366Z,0
2017-11-05T03:44:18.685Z,0
2017-11-05T03:45:19.542Z,0
2017-11-05T03:46:18.304Z,0
2017-11-05T03:47:19.599Z,0
2017-11-05T03:48:17.975Z,0
2017-11-05T03:49:18.294Z,0
2017-11-05T03:50:19.213Z,0
2017-11-05T03:51:18.624Z,0
2017-11-05T03:52:17.980Z,0
2017-11-05T03:53:17.977Z,0
2017-11-05T03:54:18.603Z,0
2017-11-05T03:55:19.663Z,0
2017-11-05T03:56:18.646Z,0
2017-11-05T03:57:18.622Z,0
2017-11-05T03:58:18.599Z,0
2017-11-05T03:59:18.269Z,0
2017-11-05T04:00:19.832Z,0
2017-11-05T04:01:18.600Z,0
2017-11-05T04:02:18.265Z,0
2017-11-05T04:03:18.579Z,0
2017-11-05T04:04:18.259Z,0
2017-11-05T04:05:19.505Z,0
2017-11-05T04:06:18.261Z,0
2017-11-05T04:07:18.570Z,0
2017-11-05T04:08:17.938Z,0
2017-11-05T04:09:18.250Z,0
2017-11-05T04:10:19.027Z,0
2017-11-05T04:11:18.556Z,0
2017-11-05T04:12:18.008Z,0
2017-11-05T04:13:17.937Z,0
2017-11-05T04:14:17.910Z,0
2017-11-05T04:15:19.128Z,0
2017-11-05T04:16:18.253Z,0
2017-11-05T04:17:18.540Z,0
2017-11-05T04:18:19.613Z,0
2017-11-05T04:19:18.543Z,0
2017-11-05T04:20:19.156Z,0
2017-11-05T04:21:18.591Z,0
2017-11-05T04:22:18.209Z,0
2017-11-05T04:23:17.880Z,0
2017-11-05T04:24:18.521Z,0
2017-11-05T04:25:19.777Z,0
2017-11-05T04:26:17.881Z,0
2017-11-05T04:27:17.871Z,0
2017-11-05T04:28:17.870Z,0
2017-11-05T04:29:18.516Z,0
2017-11-05T04:30:19.283Z,0
2017-11-05T04:31:17.855Z,0
2017-11-05T04:32:18.176Z,0
2017-11-05T04:33:18.170Z,0
2017-11-05T04:34:17.868Z,0
2017-11-05T04:35:19.181Z,0
2017-11-05T04:36:17.841Z,0
2017-11-05T04:37:18.486Z,0
2017-11-05T04:38:18.171Z,0
2017-11-05T04:39:18.475Z,0
2017-11-05T04:40:18.274Z,0
2017-11-05T04:41:18.171Z,0
2017-11-05T04:42:18.469Z,0
2017-11-05T04:43:18.153Z,0
2017-11-05T04:44:18.168Z,0
2017-11-05T04:45:20.508Z,0
2017-11-05T04:46:17.809Z,0
2017-11-05T04:47:17.822Z,0
2017-11-05T04:48:19.426Z,0
2017-11-05T04:49:17.813Z,0
2017-11-05T04:50:19.118Z,0
2017-11-05T04:51:17.800Z,0
2017-11-05T04:52:18.444Z,0
2017-11-05T04:53:18.139Z,0
2017-11-05T04:54:18.103Z,0
2017-11-05T04:55:19.459Z,0
2017-11-05T04:56:18.427Z,0
2017-11-05T04:57:18.097Z,0
2017-11-05T04:58:18.094Z,0
2017-11-05T04:59:18.096Z,0
2017-11-05T05:00:18.952Z,0
2017-11-05T05:01:18.093Z,0
2017-11-05T05:02:18.417Z,0
2017-11-05T05:03:18.913Z,0
2017-11-05T05:04:18.081Z,0
2017-11-05T05:05:17.972Z,0
2017-11-05T05:06:18.064Z,0
2017-11-05T05:07:18.086Z,0
2017-11-05T05:08:18.067Z,0
2017-11-05T05:09:17.447Z,0
2017-11-05T05:10:19.899Z,0
2017-11-05T05:11:18.388Z,0
2017-11-05T05:12:18.377Z,0
2017-11-05T05:13:18.388Z,0
2017-11-05T05:14:17.720Z,0
2017-11-05T05:15:20.294Z,0
2017-11-05T05:16:18.369Z,0
2017-11-05T05:17:18.360Z,0
2017-11-05T05:18:18.022Z,0
2017-11-05T05:19:18.281Z,0
2017-11-05T05:20:20.077Z,0
2017-11-05T05:21:17.699Z,0
2017-11-05T05:22:18.346Z,0
2017-11-05T05:23:18.335Z,0
2017-11-05T05:24:18.017Z,0
2017-11-05T05:25:19.297Z,0
2017-11-05T05:26:18.332Z,0
2017-11-05T05:27:18.327Z,0
2017-11-05T05:28:18.317Z,0
2017-11-05T05:29:17.990Z,0
2017-11-05T05:30:18.897Z,0
2017-11-05T05:31:18.328Z,0
2017-11-05T05:32:17.665Z,0
2017-11-05T05:33:17.984Z,0
2017-11-05T05:34:17.990Z,0
2017-11-05T05:35:19.887Z,0
2017-11-05T05:36:18.303Z,0
2017-11-05T05:37:18.012Z,0
2017-11-05T05:38:17.968Z,0
2017-11-05T05:39:17.334Z,0
2017-11-05T05:40:19.082Z,0
2017-11-05T05:41:17.951Z,0
2017-11-05T05:42:18.289Z,0
2017-11-05T05:43:17.970Z,0
2017-11-05T05:44:18.317Z,0
2017-11-05T05:45:20.297Z,0
2017-11-05T05:46:17.955Z,0
2017-11-05T05:47:17.946Z,0
2017-11-05T05:48:17.630Z,0
2017-11-05T05:49:21.105Z,0
2017-11-05T05:50:18.875Z,0
2017-11-05T05:51:17.929Z,0
2017-11-05T05:52:17.618Z,0
2017-11-05T05:53:17.601Z,0
2017-11-05T05:54:17.916Z,0
2017-11-05T05:55:19.320Z,0
2017-11-05T05:56:18.234Z,0
2017-11-05T05:57:17.929Z,0
2017-11-05T05:58:17.275Z,0
2017-11-05T05:59:17.253Z,0
2017-11-05T06:00:19.366Z,0
2017-11-05T06:01:17.893Z,0
2017-11-05T06:02:18.214Z,0
2017-11-05T06:03:17.893Z,0
2017-11-05T06:04:17.928Z,0
2017-11-05T06:05:19.710Z,0
2017-11-05T06:06:17.550Z,0
2017-11-05T06:07:17.569Z,0
2017-11-05T06:08:16.906Z,0
2017-11-05T06:09:17.872Z,0
2017-11-05T06:10:19.715Z,0
2017-11-05T06:11:18.179Z,0
2017-11-05T06:12:17.219Z,0
2017-11-05T06:13:17.548Z,0
2017-11-05T06:14:17.869Z,0
2017-11-05T06:15:18.576Z,0
2017-11-05T06:16:17.872Z,0
2017-11-05T06:17:17.871Z,0
2017-11-05T06:18:17.543Z,0
2017-11-05T06:19:18.595Z,0
2017-11-05T06:20:18.753Z,0
2017-11-05T06:21:17.859Z,0
2017-11-05T06:22:17.187Z,0
2017-11-05T06:23:18.143Z,0
2017-11-05T06:24:17.520Z,0
2017-11-05T06:25:18.534Z,0
2017-11-05T06:26:17.501Z,0
2017-11-05T06:27:17.821Z,0
2017-11-05T06:28:18.130Z,0
2017-11-05T06:29:17.807Z,0
2017-11-05T06:30:19.065Z,0
2017-11-05T06:31:17.490Z,0
2017-11-05T06:32:17.817Z,0
2017-11-05T06:33:17.804Z,0
2017-11-05T06:34:20.650Z,0
2017-11-05T06:35:19.309Z,0
2017-11-05T06:36:18.100Z,0
2017-11-05T06:37:17.820Z,0
2017-11-05T06:38:18.097Z,0
2017-11-05T06:39:17.451Z,0
2017-11-05T06:40:19.514Z,5
2017-11-05T06:41:17.796Z,5
2017-11-05T06:42:17.447Z,5
2017-11-05T06:43:18.118Z,5
2017-11-05T06:44:17.120Z,5
2017-11-05T06:45:18.317Z,5
2017-11-05T06:46:18.067Z,5
2017-11-05T06:47:17.419Z,5
2017-11-05T06:48:17.742Z,5
2017-11-05T06:49:17.092Z,5
2017-11-05T06:50:19.492Z,5
2017-11-05T06:51:17.104Z,5
2017-11-05T06:52:17.739Z,5
2017-11-05T06:53:17.427Z,5
2017-11-05T06:54:17.744Z,5
2017-11-05T06:55:20.831Z,5
2017-11-05T06:56:18.049Z,5
2017-11-05T06:57:17.743Z,5
2017-11-05T06:58:17.713Z,5
2017-11-05T06:59:18.029Z,5
2017-11-05T07:00:19.337Z,5
2017-11-05T07:01:18.019Z,10
2017-11-05T07:02:18.040Z,10
2017-11-05T07:03:17.705Z,10
2017-11-05T07:04:17.690Z,10
2017-11-05T07:05:19.552Z,10
2017-11-05T07:06:18.022Z,10
2017-11-05T07:07:17.683Z,10
2017-11-05T07:08:17.695Z,10
2017-11-05T07:09:17.356Z,10
2017-11-05T07:10:17.985Z,10
2017-11-05T07:11:17.686Z,10
2017-11-05T07:12:17.360Z,10
2017-11-05T07:13:17.356Z,10
2017-11-05T07:14:17.016Z,10
2017-11-05T07:15:19.982Z,15
2017-11-05T07:16:17.334Z,15
2017-11-05T07:17:17.653Z,15
2017-11-05T07:18:17.661Z,15
2017-11-05T07:19:17.652Z,15
2017-11-05T07:20:20.673Z,15
2017-11-05T07:21:17.643Z,15
2017-11-05T07:22:17.659Z,15
2017-11-05T07:23:17.965Z,15
2017-11-05T07:24:17.968Z,15
2017-11-05T07:25:18.814Z,15
2017-11-05T07:26:18.010Z,15
2017-11-05T07:27:17.664Z,15
2017-11-05T07:28:17.965Z,15
2017-11-05T07:29:17.312Z,15
2017-11-05T07:30:19.676Z,15
2017-11-05T07:31:18.011Z,15
2017-11-05T07:32:17.292Z,15
2017-11-05T07:33:17.627Z,15
2017-11-05T07:34:17.642Z,15
2017-11-05T07:35:18.974Z,15
2017-11-05T07:36:18.402Z,20
2017-11-05T07:37:16.956Z,20
2017-11-05T07:38:17.934Z,20
2017-11-05T07:39:17.601Z,15
2017-11-05T07:40:18.684Z,15
2017-11-05T07:41:17.619Z,20
2017-11-05T07:42:17.928Z,20
2017-11-05T07:43:17.606Z,20
2017-11-05T07:44:17.605Z,20
2017-11-05T07:45:19.376Z,20
2017-11-05T07:46:17.259Z,25
2017-11-05T07:47:17.578Z,25
2017-11-05T07:48:17.266Z,25
2017-11-05T07:49:17.583Z,25
2017-11-05T07:50:18.938Z,25
2017-11-05T07:51:18.943Z,25
2017-11-05T07:52:17.237Z,25
2017-11-05T07:53:17.923Z,25
2017-11-05T07:54:17.567Z,25
2017-11-05T07:55:19.529Z,25
2017-11-05T07:56:17.884Z,25
2017-11-05T07:57:17.886Z,25
2017-11-05T07:58:16.922Z,25
2017-11-05T07:59:17.546Z,20
2017-11-05T08:00:19.089Z,20
2017-11-05T08:01:17.573Z,25
2017-11-05T08:02:17.583Z,25
2017-11-05T08:03:17.219Z,25
2017-11-05T08:04:17.531Z,25
2017-11-05T08:05:18.716Z,30
2017-11-05T08:06:19.452Z,30
2017-11-05T08:07:17.536Z,30
2017-11-05T08:08:17.200Z,30
2017-11-05T08:09:17.861Z,35
2017-11-05T08:10:18.291Z,35
2017-11-05T08:11:17.194Z,35
2017-11-05T08:12:17.208Z,35
2017-11-05T08:13:17.837Z,40
2017-11-05T08:14:17.538Z,40
2017-11-05T08:15:18.966Z,45
2017-11-05T08:16:17.518Z,45
2017-11-05T08:17:17.499Z,45
2017-11-05T08:18:17.521Z,45
2017-11-05T08:19:17.843Z,45
2017-11-05T08:20:19.199Z,45
2017-11-05T08:21:18.989Z,45
2017-11-05T08:22:17.496Z,45
2017-11-05T08:23:17.500Z,45
2017-11-05T08:24:17.828Z,45
2017-11-05T08:25:17.996Z,50
2017-11-05T08:26:17.828Z,45
2017-11-05T08:27:17.185Z,45
2017-11-05T08:28:17.148Z,50
2017-11-05T08:29:17.161Z,50
2017-11-05T08:30:18.839Z,50
2017-11-05T08:31:17.152Z,45
2017-11-05T08:32:17.801Z,45
2017-11-05T08:33:17.469Z,45
2017-11-05T08:34:17.857Z,45
2017-11-05T08:35:18.995Z,40
2017-11-05T08:36:18.817Z,40
2017-11-05T08:37:17.791Z,45
2017-11-05T08:38:17.140Z,40
2017-11-05T08:39:17.114Z,40
2017-11-05T08:40:18.736Z,40
2017-11-05T08:41:17.141Z,40
2017-11-05T08:42:17.139Z,40
2017-11-05T08:43:17.454Z,40
2017-11-05T08:44:17.469Z,40
2017-11-05T08:45:19.572Z,40
2017-11-05T08:46:17.440Z,40
2017-11-05T08:47:17.116Z,40
2017-11-05T08:48:17.761Z,35
2017-11-05T08:49:16.788Z,35
2017-11-05T08:50:18.980Z,35
2017-11-05T08:51:16.786Z,35
2017-11-05T08:52:19.136Z,35
2017-11-05T08:53:17.443Z,35
2017-11-05T08:54:17.077Z,35
2017-11-05T08:55:18.635Z,35
2017-11-05T08:56:17.730Z,35
2017-11-05T08:57:17.737Z,35
2017-11-05T08:58:17.415Z,35
2017-11-05T08:59:17.715Z,35
2017-11-05T09:00:18.818Z,35
2017-11-05T09:01:17.390Z,35
2017-11-05T09:02:17.064Z,35
2017-11-05T09:03:17.399Z,35
2017-11-05T09:04:17.065Z,35
2017-11-05T09:05:18.757Z,35
2017-11-05T09:06:17.063Z,35
2017-11-05T09:07:18.435Z,35
2017-11-05T09:08:17.064Z,35
2017-11-05T09:09:17.374Z,35
2017-11-05T09:10:18.455Z,35
2017-11-05T09:11:17.683Z,35
2017-11-05T09:12:17.046Z,35
2017-11-05T09:13:17.381Z,35
2017-11-05T09:14:17.723Z,35
2017-11-05T09:15:17.908Z,35
2017-11-05T09:16:17.366Z,35
2017-11-05T09:17:17.049Z,35
2017-11-05T09:18:17.349Z,35
2017-11-05T09:19:17.386Z,35
2017-11-05T09:20:18.631Z,35
2017-11-05T09:21:17.716Z,40
2017-11-05T09:22:18.072Z,40
2017-11-05T09:23:17.028Z,40
2017-11-05T09:24:17.350Z,40
2017-11-05T09:25:18.440Z,40
2017-11-05T09:26:17.354Z,40
2017-11-05T09:27:17.657Z,40
2017-11-05T09:28:17.014Z,40
2017-11-05T09:29:17.667Z,40
2017-11-05T09:30:18.110Z,40
2017-11-05T09:31:17.354Z,40
2017-11-05T09:32:17.668Z,40
2017-11-05T09:33:16.994Z,40
2017-11-05T09:34:17.662Z,40
2017-11-05T09:35:18.537Z,35
2017-11-05T09:36:17.312Z,35
2017-11-05T09:37:17.710Z,35
2017-11-05T09:38:17.315Z,30
2017-11-05T09:39:17.318Z,25
2017-11-05T09:40:18.006Z,20
2017-11-05T09:41:17.640Z,20
2017-11-05T09:42:17.643Z,15
2017-11-05T09:43:16.661Z,15
2017-11-05T09:44:17.295Z,15
2017-11-05T09:45:19.249Z,15
2017-11-05T09:46:16.346Z,20
2017-11-05T09:47:17.298Z,25
2017-11-05T09:48:17.325Z,20
2017-11-05T09:49:17.290Z,20
2017-11-05T09:50:18.403Z,20
2017-11-05T09:51:17.293Z,25
2017-11-05T09:52:17.841Z,30
2017-11-05T09:53:16.976Z,35
2017-11-05T09:54:17.616Z,40
2017-11-05T09:55:19.008Z,40
2017-11-05T09:56:17.609Z,45
2017-11-05T09:57:16.634Z,45
2017-11-05T09:58:16.960Z,45
2017-11-05T09:59:16.946Z,45
2017-11-05T10:00:18.714Z,50
2017-11-05T10:01:16.950Z,50
2017-11-05T10:02:17.279Z,50
2017-11-05T10:03:17.271Z,50
2017-11-05T10:04:16.941Z,50
2017-11-05T10:05:19.202Z,50
2017-11-05T10:06:17.263Z,50
2017-11-05T10:07:17.260Z,50
2017-11-05T10:08:16.686Z,50
2017-11-05T10:09:16.937Z,50
2017-11-05T10:10:18.010Z,50
2017-11-05T10:11:17.271Z,45
2017-11-05T10:12:16.623Z,45
2017-11-05T10:13:16.925Z,45
2017-11-05T10:14:16.943Z,50
2017-11-05T10:15:19.453Z,50
2017-11-05T10:16:16.598Z,50
2017-11-05T10:17:17.251Z,50
2017-11-05T10:18:17.575Z,50
2017-11-05T10:19:17.235Z,55
2017-11-05T10:20:18.195Z,60
2017-11-05T10:21:16.923Z,60
2017-11-05T10:22:16.922Z,60
2017-11-05T10:23:17.188Z,60
2017-11-05T10:24:16.912Z,60
2017-11-05T10:25:18.813Z,60
2017-11-05T10:26:17.247Z,60
2017-11-05T10:27:17.550Z,60
2017-11-05T10:28:17.557Z,60
2017-11-05T10:29:17.210Z,55
2017-11-05T10:30:19.062Z,55
2017-11-05T10:31:17.188Z,55
2017-11-05T10:32:17.189Z,60
2017-11-05T10:33:17.497Z,60
2017-11-05T10:34:17.495Z,60
2017-11-05T10:35:18.111Z,60
2017-11-05T10:36:16.852Z,60
2017-11-05T10:37:16.659Z,55
2017-11-05T10:38:16.691Z,55
2017-11-05T10:39:17.174Z,55
2017-11-05T10:40:18.088Z,55
2017-11-05T10:41:17.475Z,60
2017-11-05T10:42:16.840Z,60
2017-11-05T10:43:16.196Z,60
2017-11-05T10:44:17.159Z,55
2017-11-05T10:45:19.045Z,60
2017-11-05T10:46:16.511Z,60
2017-11-05T10:47:16.496Z,60
2017-11-05T10:48:16.489Z,60
2017-11-05T10:49:16.811Z,60
2017-11-05T10:50:18.276Z,55
2017-11-05T10:51:16.498Z,55
2017-11-05T10:52:16.813Z,55
2017-11-05T10:53:20.605Z,55
2017-11-05T10:54:16.809Z,55
2017-11-05T10:55:18.008Z,50
2017-11-05T10:56:16.470Z,50
2017-11-05T10:57:16.781Z,50
2017-11-05T10:58:17.102Z,50
2017-11-05T10:59:16.780Z,50
2017-11-05T11:00:18.342Z,50
2017-11-05T11:01:17.086Z,50
2017-11-05T11:02:17.188Z,50
2017-11-05T11:03:16.464Z,55
2017-11-05T11:04:16.768Z,55
2017-11-05T11:05:18.579Z,60
2017-11-05T11:06:16.429Z,60
2017-11-05T11:07:16.749Z,60
2017-11-05T11:08:16.428Z,60
2017-11-05T11:09:16.742Z,60
2017-11-05T11:10:18.475Z,60
2017-11-05T11:11:16.407Z,65
2017-11-05T11:12:17.373Z,60
2017-11-05T11:13:16.747Z,60
2017-11-05T11:14:16.718Z,65
2017-11-05T11:15:17.774Z,65
2017-11-05T11:16:16.728Z,65
2017-11-05T11:17:17.047Z,65
2017-11-05T11:18:16.745Z,65
2017-11-05T11:19:16.721Z,65
2017-11-05T11:20:18.661Z,70
2017-11-05T11:21:16.692Z,70
2017-11-05T11:22:16.368Z,75
2017-11-05T11:23:17.987Z,70
2017-11-05T11:24:17.345Z,65
2017-11-05T11:25:17.862Z,65
2017-11-05T11:26:16.692Z,65
2017-11-05T11:27:17.017Z,70
2017-11-05T11:28:17.324Z,70
2017-11-05T11:29:16.999Z,75
2017-11-05T11:30:18.173Z,75
2017-11-05T11:31:16.991Z,80
2017-11-05T11:32:17.304Z,80
2017-11-05T11:33:16.855Z,80
2017-11-05T11:34:17.495Z,80
2017-11-05T11:35:18.189Z,80
2017-11-05T11:36:16.668Z,80
2017-11-05T11:37:17.292Z,80
2017-11-05T11:38:16.322Z,80
2017-11-05T11:39:16.634Z,80
2017-11-05T11:40:17.607Z,80
2017-11-05T11:41:16.964Z,80
2017-11-05T11:42:16.970Z,85
2017-11-05T11:43:16.953Z,85
2017-11-05T11:44:16.617Z,85
2017-11-05T11:45:18.250Z,85
2017-11-05T11:46:17.281Z,85
2017-11-05T11:47:16.926Z,85
2017-11-05T11:48:16.302Z,85
2017-11-05T11:49:16.290Z,80
2017-11-05T11:50:17.858Z,80
2017-11-05T11:51:16.278Z,80
2017-11-05T11:52:16.267Z,85
2017-11-05T11:53:16.623Z,85
2017-11-05T11:54:16.830Z,85
2017-11-05T11:55:17.448Z,85
2017-11-05T11:56:16.891Z,85
2017-11-05T11:57:17.220Z,85
2017-11-05T11:58:17.219Z,85
2017-11-05T11:59:16.573Z,80
2017-11-05T12:00:18.245Z,80
2017-11-05T12:01:16.231Z,75
2017-11-05T12:02:16.223Z,75
2017-11-05T12:03:16.889Z,75
2017-11-05T12:04:16.541Z,75
2017-11-05T12:05:18.016Z,80
2017-11-05T12:06:17.228Z,80
2017-11-05T12:07:16.201Z,80
2017-11-05T12:08:17.202Z,80
2017-11-05T12:09:16.839Z,75
2017-11-05T12:10:17.754Z,75
2017-11-05T12:11:16.520Z,75
2017-11-05T12:12:16.882Z,75
2017-11-05T12:13:16.201Z,75
2017-11-05T12:14:16.835Z,70
2017-11-05T12:15:18.233Z,70
2017-11-05T12:16:16.177Z,70
2017-11-05T12:17:15.848Z,70
2017-11-05T12:18:17.153Z,70
2017-11-05T12:19:16.485Z,75
2017-11-05T12:20:18.119Z,65
2017-11-05T12:21:16.820Z,55
2017-11-05T12:22:16.231Z,55
2017-11-05T12:23:16.495Z,55
2017-11-05T12:24:19.701Z,55
2017-11-05T12:25:17.913Z,60
2017-11-05T12:26:17.135Z,60
2017-11-05T12:27:17.212Z,65
2017-11-05T12:28:17.114Z,60
2017-11-05T12:29:16.797Z,60
2017-11-05T12:30:17.447Z,60
2017-11-05T12:31:17.114Z,65
2017-11-05T12:32:16.452Z,65
2017-11-05T12:33:16.138Z,70
2017-11-05T12:34:16.444Z,65
2017-11-05T12:35:18.174Z,60
2017-11-05T12:36:16.782Z,55
2017-11-05T12:37:16.453Z,55
2017-11-05T12:38:17.100Z,50
2017-11-05T12:39:17.072Z,50
2017-11-05T12:40:18.262Z,50
2017-11-05T12:41:16.761Z,45
2017-11-05T12:42:17.049Z,45
2017-11-05T12:43:16.399Z,45
2017-11-05T12:44:16.727Z,40
2017-11-05T12:45:17.053Z,45
2017-11-05T12:46:17.043Z,40
2017-11-05T12:47:16.768Z,40
2017-11-05T12:48:17.052Z,35
2017-11-05T12:49:16.071Z,40
2017-11-05T12:50:18.239Z,40
2017-11-05T12:51:16.089Z,40
2017-11-05T12:52:16.099Z,45
2017-11-05T12:53:16.721Z,50
2017-11-05T12:54:17.262Z,50
2017-11-05T12:55:17.489Z,55
2017-11-05T12:56:16.728Z,60
2017-11-05T12:57:16.722Z,65
2017-11-05T12:58:16.674Z,70
2017-11-05T12:59:16.666Z,70
2017-11-05T13:00:18.387Z,75
2017-11-05T13:01:16.390Z,70
2017-11-05T13:02:17.000Z,70
2017-11-05T13:03:16.343Z,70
2017-11-05T13:04:16.998Z,70
2017-11-05T13:05:17.134Z,70
2017-11-05T13:06:16.679Z,70
2017-11-05T13:07:17.012Z,65
2017-11-05T13:08:16.969Z,60
2017-11-05T13:09:16.621Z,60
2017-11-05T13:10:17.852Z,65
2017-11-05T13:11:16.968Z,60
2017-11-05T13:12:17.911Z,55
2017-11-05T13:13:17.990Z,50
2017-11-05T13:14:19.647Z,50
2017-11-05T13:15:20.550Z,45
2017-11-05T13:16:15.970Z,45
2017-11-05T13:17:16.629Z,50
2017-11-05T13:18:16.640Z,55
2017-11-05T13:19:16.627Z,50
2017-11-05T13:20:18.170Z,45
2017-11-05T13:21:16.614Z,45
2017-11-05T13:22:16.276Z,40
2017-11-05T13:23:16.267Z,35
2017-11-05T13:24:17.122Z,35
2017-11-05T13:25:18.560Z,35
2017-11-05T13:26:16.262Z,30
2017-11-05T13:27:16.246Z,30
2017-11-05T13:28:15.635Z,35
2017-11-05T13:29:16.225Z,45
2017-11-05T13:30:17.453Z,50
2017-11-05T13:31:16.573Z,50
2017-11-05T13:32:16.579Z,45
2017-11-05T13:33:16.554Z,35
2017-11-05T13:34:16.560Z,35
2017-11-05T13:35:18.274Z,35
2017-11-05T13:36:16.615Z,35
2017-11-05T13:37:16.586Z,35
2017-11-05T13:38:15.576Z,35
2017-11-05T13:39:16.243Z,35
2017-11-05T13:40:16.516Z,35
2017-11-05T13:41:16.532Z,35
2017-11-05T13:42:16.213Z,40
2017-11-05T13:43:16.519Z,35
2017-11-05T13:44:16.588Z,35
2017-11-05T13:45:17.694Z,30
2017-11-05T13:46:16.587Z,30
2017-11-05T13:47:16.195Z,40
2017-11-05T13:48:16.161Z,40
2017-11-05T13:49:15.839Z,45
2017-11-05T13:50:16.865Z,55
2017-11-05T13:51:16.159Z,55
2017-11-05T13:52:16.136Z,55
2017-11-05T13:53:16.141Z,55
2017-11-05T13:54:15.852Z,60
2017-11-05T13:55:19.397Z,70
2017-11-05T13:56:16.462Z,80
2017-11-05T13:57:16.118Z,80
2017-11-05T13:58:16.772Z,70
2017-11-05T13:59:16.463Z,55
2017-11-05T14:00:17.374Z,45
2017-11-05T14:01:16.477Z,40
2017-11-05T14:02:16.749Z,35
2017-11-05T14:03:16.476Z,35
2017-11-05T14:04:16.412Z,35
2017-11-05T14:05:16.775Z,35
2017-11-05T14:06:15.794Z,35
2017-11-05T14:07:16.415Z,35
2017-11-05T14:08:16.781Z,35
2017-11-05T14:09:16.398Z,35
2017-11-05T14:10:17.483Z,35
2017-11-05T14:11:15.455Z,35
2017-11-05T14:12:16.083Z,35
2017-11-05T14:13:16.419Z,35
2017-11-05T14:14:16.065Z,40
2017-11-05T14:15:17.296Z,35
2017-11-05T14:16:15.758Z,35
2017-11-05T14:17:16.045Z,30
2017-11-05T14:18:16.410Z,30
2017-11-05T14:19:16.021Z,30
2017-11-05T14:20:18.290Z,30
2017-11-05T14:21:16.341Z,30
2017-11-05T14:22:15.727Z,30
2017-11-05T14:23:16.406Z,30
2017-11-05T14:24:16.036Z,30
2017-11-05T14:25:20.731Z,30
2017-11-05T14:26:16.043Z,30
2017-11-05T14:27:16.042Z,30
2017-11-05T14:28:16.365Z,35
2017-11-05T14:29:16.333Z,35
2017-11-05T14:30:18.215Z,35